Time;durP1;ratioP1;P1;durP2;ratioP2;P2;SDS_P1;SDS_P2;PMS_P1;PMS_P2;Temp;Humidity;BMP_temperature;BMP_pressure;BME280_temperature;BME280_humidity;BME280_pressure;Samples;Min_cycle;Max_cycle;Signal;HPM_P1;HPM_P2
2022/11/17 00:00:23;;;;;;;8.50;6.38;;;;;;;;;;6242641;22;20318;-85
2022/11/17 00:02:49;;;;;;;8.95;6.70;;;;;;;;;;6239360;22;20008;-81
2022/11/17 00:05:15;;;;;;;8.52;6.80;;;;;;;;;;6237993;22;20040;-83
2022/11/17 00:07:45;;;;;;;13.90;7.07;;;;;;;;;;6241408;22;20382;-80
2022/11/17 00:10:12;;;;;;;9.23;6.75;;;;;;;;;;6215010;23;20011;-82
2022/11/17 00:15:23;;;;;;;9.82;6.93;;;;;;;;;;6241161;23;20039;-83
2022/11/17 00:21:17;;;;;;;10.52;7.57;;;;;;;;;;6229027;23;20009;-80
2022/11/17 00:23:22;;;;;;;11.35;8.48;;;;;;;;;;6222697;23;20016;-80
2022/11/17 00:25:48;;;;;;;11.77;7.95;;;;;;;;;;6199005;23;20004;-80
2022/11/17 00:28:14;;;;;;;14.00;8.73;;;;;;;;;;6223403;23;20001;-79
2022/11/17 00:36:09;;;;;;;11.50;8.07;;;;;;;;;;6220840;23;20020;-81
2022/11/17 00:38:35;;;;;;;11.52;8.48;;;;;;;;;;6233032;23;20000;-82
2022/11/17 00:41:01;;;;;;;13.85;8.50;;;;;;;;;;6235321;23;20036;-82
2022/11/17 00:43:27;;;;;;;11.57;9.20;;;;;;;;;;6219593;23;20001;-80
2022/11/17 00:45:53;;;;;;;10.15;8.27;;;;;;;;;;6221145;23;20059;-81
2022/11/17 00:48:19;;;;;;;12.45;8.48;;;;;;;;;;6220715;23;20001;-82
2022/11/17 00:50:45;;;;;;;12.43;8.98;;;;;;;;;;6217670;23;20004;-82
2022/11/17 00:53:14;;;;;;;12.98;9.32;;;;;;;;;;6219557;23;20001;-81
2022/11/17 00:55:44;;;;;;;11.27;8.65;;;;;;;;;;6218865;23;20391;-81
2022/11/17 00:58:34;;;;;;;12.02;8.68;;;;;;;;;;6214563;23;20012;-81
2022/11/17 01:01:00;;;;;;;12.63;7.82;;;;;;;;;;6221780;23;20007;-83
2022/11/17 01:03:26;;;;;;;11.55;8.05;;;;;;;;;;6234371;23;20027;-81
2022/11/17 01:05:52;;;;;;;11.40;8.57;;;;;;;;;;6225160;23;20005;-80
2022/11/17 01:08:18;;;;;;;13.10;9.30;;;;;;;;;;6224513;23;20001;-81
2022/11/17 01:10:44;;;;;;;12.23;8.63;;;;;;;;;;6223122;23;20012;-79
2022/11/17 01:13:10;;;;;;;12.13;9.30;;;;;;;;;;6222503;23;20004;-81
2022/11/17 01:15:36;;;;;;;12.50;9.50;;;;;;;;;;6220822;23;20005;-79
2022/11/17 01:18:02;;;;;;;11.23;8.23;;;;;;;;;;6215795;23;20001;-79
2022/11/17 01:20:28;;;;;;;12.40;8.70;;;;;;;;;;6214552;23;20005;-79
2022/11/17 01:22:54;;;;;;;10.68;7.63;;;;;;;;;;6188701;23;20008;-79
2022/11/17 01:25:20;;;;;;;10.57;8.48;;;;;;;;;;6214934;23;20009;-79
2022/11/17 01:27:47;;;;;;;10.93;7.38;;;;;;;;;;6212749;23;20468;-80
2022/11/17 01:30:16;;;;;;;8.95;6.93;;;;;;;;;;6214610;23;20020;-78
2022/11/17 01:32:42;;;;;;;8.73;6.57;;;;;;;;;;6212927;23;20004;-79
2022/11/17 01:35:08;;;;;;;8.38;6.72;;;;;;;;;;6186241;23;20009;-77
2022/11/17 01:37:34;;;;;;;9.55;7.10;;;;;;;;;;6190139;23;20083;-79
2022/11/17 01:40:00;;;;;;;8.27;5.80;;;;;;;;;;6210593;23;20015;-78
2022/11/17 01:42:27;;;;;;;6.97;5.05;;;;;;;;;;6213013;23;20001;-79
2022/11/17 01:44:56;;;;;;;5.70;3.92;;;;;;;;;;6213923;23;20027;-81
2022/11/17 01:47:29;;;;;;;6.57;4.70;;;;;;;;;;6212758;23;20001;-79
2022/11/17 01:50:18;;;;;;;9.15;4.80;;;;;;;;;;6211314;23;20433;-79
2022/11/17 01:52:44;;;;;;;5.80;4.30;;;;;;;;;;6214121;23;20099;-81
2022/11/17 01:55:10;;;;;;;4.55;4.13;;;;;;;;;;6222329;23;20009;-82
2022/11/17 01:57:47;;;;;;;5.50;4.57;;;;;;;;;;6194021;23;20013;-80
2022/11/17 02:00:13;;;;;;;4.32;3.60;;;;;;;;;;6229682;23;20035;-81
2022/11/17 02:02:40;;;;;;;5.93;4.10;;;;;;;;;;6204307;23;20005;-81
2022/11/17 02:05:29;;;;;;;5.13;4.43;;;;;;;;;;6230777;23;20078;-82
2022/11/17 02:07:56;;;;;;;5.05;3.78;;;;;;;;;;6213261;23;20001;-81
2022/11/17 02:10:22;;;;;;;4.85;3.80;;;;;;;;;;6221375;23;20012;-79
2022/11/17 02:12:49;;;;;;;4.75;4.07;;;;;;;;;;6220481;23;20055;-81
2022/11/17 02:15:15;;;;;;;4.72;4.20;;;;;;;;;;6199660;23;20009;-80
2022/11/17 02:17:42;;;;;;;5.22;4.32;;;;;;;;;;6221627;23;20011;-80
2022/11/17 02:20:08;;;;;;;5.75;3.72;;;;;;;;;;6224224;23;20005;-80
2022/11/17 02:22:46;;;;;;;5.78;4.30;;;;;;;;;;6224661;23;20012;-80
2022/11/17 02:25:20;;;;;;;5.68;4.40;;;;;;;;;;6229633;23;20011;-81
2022/11/17 02:27:49;;;;;;;4.97;4.47;;;;;;;;;;6228817;23;20003;-80
2022/11/17 02:30:19;;;;;;;5.43;4.50;;;;;;;;;;6231070;23;20020;-80
2022/11/17 02:32:51;;;;;;;5.15;4.28;;;;;;;;;;6213606;23;20039;-81
2022/11/17 02:35:24;;;;;;;5.32;4.18;;;;;;;;;;6216309;23;20433;-82
2022/11/17 02:37:58;;;;;;;6.50;4.55;;;;;;;;;;6187612;23;20349;-80
2022/11/17 02:40:27;;;;;;;6.43;4.88;;;;;;;;;;6203109;23;20074;-80
2022/11/17 02:45:51;;;;;;;4.53;4.07;;;;;;;;;;6217119;23;20075;-83
2022/11/17 02:48:21;;;;;;;7.20;4.47;;;;;;;;;;6216870;23;19997;-81
2022/11/17 02:50:49;;;;;;;5.68;4.50;;;;;;;;;;6219134;23;20033;-80
2022/11/17 02:53:15;;;;;;;5.90;4.38;;;;;;;;;;6217801;23;20008;-80
2022/11/17 02:55:47;;;;;;;6.15;4.40;;;;;;;;;;6218310;23;20476;-80
2022/11/17 02:58:13;;;;;;;5.50;4.15;;;;;;;;;;6217488;23;20075;-80
2022/11/17 03:00:51;;;;;;;6.18;4.05;;;;;;;;;;6217885;23;20035;-81
2022/11/17 03:03:17;;;;;;;5.57;4.47;;;;;;;;;;6218463;23;20429;-80
2022/11/17 03:05:52;;;;;;;5.95;4.75;;;;;;;;;;6218818;23;20028;-81
2022/11/17 03:08:33;;;;;;;5.55;4.05;;;;;;;;;;6216177;23;20029;-81
2022/11/17 03:10:59;;;;;;;;;;;;;;;;;;6218749;23;20008;-80
2022/11/17 03:13:33;;;;;;;6.00;3.60;;;;;;;;;;6216940;23;19900;-79
2022/11/17 03:16:06;;;;;;;5.95;4.30;;;;;;;;;;6227409;23;20005;-82
2022/11/17 03:18:42;;;;;;;4.93;3.85;;;;;;;;;;6230897;23;20011;-80
2022/11/17 03:21:14;;;;;;;6.60;4.13;;;;;;;;;;6220180;23;20005;-80
2022/11/17 03:23:44;;;;;;;5.30;3.92;;;;;;;;;;6217731;23;20001;-79
2022/11/17 03:26:12;;;;;;;5.13;4.20;;;;;;;;;;6222829;23;20001;-80
2022/11/17 03:28:39;;;;;;;5.68;4.43;;;;;;;;;;6223511;23;20457;-80
2022/11/17 03:31:08;;;;;;;5.43;4.40;;;;;;;;;;6225513;23;20008;-80
2022/11/17 03:33:34;;;;;;;6.75;4.60;;;;;;;;;;6218688;23;20518;-81
2022/11/17 03:36:06;;;;;;;6.55;4.63;;;;;;;;;;6219309;23;20012;-81
2022/11/17 03:38:35;;;;;;;6.88;5.38;;;;;;;;;;6217152;23;20001;-81
2022/11/17 03:41:04;;;;;;;6.00;4.97;;;;;;;;;;6215727;23;20023;-80
2022/11/17 03:43:33;;;;;;;6.30;5.13;;;;;;;;;;6217398;23;20507;-81
2022/11/17 03:46:03;;;;;;;8.43;5.30;;;;;;;;;;6217678;23;19997;-81
2022/11/17 03:48:38;;;;;;;5.53;4.35;;;;;;;;;;6217181;23;20004;-81
2022/11/17 03:51:08;;;;;;;8.63;5.55;;;;;;;;;;6216476;23;20168;-81
2022/11/17 03:53:34;;;;;;;8.77;5.65;;;;;;;;;;6217650;23;20436;-81
2022/11/17 03:56:03;;;;;;;7.53;5.30;;;;;;;;;;6218236;23;20036;-82
2022/11/17 03:58:32;;;;;;;9.13;5.47;;;;;;;;;;6217004;23;20000;-82
2022/11/17 04:00:59;;;;;;;7.28;5.63;;;;;;;;;;6216566;23;20032;-80
2022/11/17 04:03:29;;;;;;;6.47;5.40;;;;;;;;;;6216055;23;20004;-80
2022/11/17 04:05:55;;;;;;;8.03;6.17;;;;;;;;;;6217882;23;20050;-81
2022/11/17 04:08:24;;;;;;;8.15;5.70;;;;;;;;;;6217471;23;20005;-80
2022/11/17 04:16:19;;;;;;;10.05;7.25;;;;;;;;;;6217889;23;20018;-79
2022/11/17 04:18:45;;;;;;;9.60;6.70;;;;;;;;;;6212830;23;20008;-79
2022/11/17 04:21:11;;;;;;;11.15;7.32;;;;;;;;;;6213650;23;20005;-79
2022/11/17 04:23:37;;;;;;;12.55;6.70;;;;;;;;;;6186118;23;19996;-80
2022/11/17 04:28:49;;;;;;;11.10;7.30;;;;;;;;;;6213083;23;20131;-80
2022/11/17 04:31:15;;;;;;;8.80;6.75;;;;;;;;;;6215185;23;20015;-80
2022/11/17 04:33:42;;;;;;;11.80;7.00;;;;;;;;;;6232937;22;20001;-83
2022/11/17 04:36:09;;;;;;;10.35;6.93;;;;;;;;;;6242669;22;20003;-82
2022/11/17 04:38:35;;;;;;;9.55;6.55;;;;;;;;;;6238674;22;20012;-80
2022/11/17 04:43:47;;;;;;;8.15;6.18;;;;;;;;;;6213681;23;20016;-78
2022/11/17 04:46:14;;;;;;;11.00;7.05;;;;;;;;;;6215084;23;19993;-80
2022/11/17 04:48:40;;;;;;;11.07;6.45;;;;;;;;;;6214444;23;20001;-79
2022/11/17 04:51:06;;;;;;;9.25;6.57;;;;;;;;;;6200943;23;20064;-82
2022/11/17 04:53:32;;;;;;;10.57;7.30;;;;;;;;;;6231655;23;20005;-80
2022/11/17 04:56:02;;;;;;;10.90;6.95;;;;;;;;;;6197029;23;20072;-77
2022/11/17 04:58:28;;;;;;;8.95;7.07;;;;;;;;;;6221150;23;20008;-82
2022/11/17 05:00:54;;;;;;;7.95;6.57;;;;;;;;;;6206705;23;20032;-82
2022/11/17 05:03:20;;;;;;;8.32;6.43;;;;;;;;;;6222034;23;20036;-81
2022/11/17 05:05:46;;;;;;;9.15;6.63;;;;;;;;;;6219223;23;20019;-80
2022/11/17 05:08:12;;;;;;;9.60;6.72;;;;;;;;;;6195338;23;20005;-81
2022/11/17 05:13:26;;;;;;;10.85;6.97;;;;;;;;;;6223901;23;20018;-81
2022/11/17 05:18:38;;;;;;;9.43;7.13;;;;;;;;;;6230455;23;20030;-82
2022/11/17 05:21:05;;;;;;;7.93;6.28;;;;;;;;;;6203308;23;20089;-81
2022/11/17 05:26:16;;;;;;;7.55;5.75;;;;;;;;;;6215566;23;20023;-81
2022/11/17 05:28:42;;;;;;;8.35;5.72;;;;;;;;;;6214805;23;20000;-80
2022/11/17 05:31:08;;;;;;;7.15;5.65;;;;;;;;;;6189483;23;20413;-82
2022/11/17 05:33:34;;;;;;;6.95;5.20;;;;;;;;;;6215666;23;20035;-81
2022/11/17 05:36:00;;;;;;;6.13;4.80;;;;;;;;;;6220527;23;20066;-82
2022/11/17 05:38:26;;;;;;;6.60;4.95;;;;;;;;;;6228811;23;20055;-82
2022/11/17 05:40:53;;;;;;;5.57;4.50;;;;;;;;;;6229772;23;20044;-80
2022/11/17 05:43:19;;;;;;;6.95;4.05;;;;;;;;;;6200849;23;19997;-81
2022/11/17 05:45:45;;;;;;;5.80;3.83;;;;;;;;;;6227533;23;20441;-80
2022/11/17 05:48:11;;;;;;;6.03;4.53;;;;;;;;;;6223615;23;19997;-83
2022/11/17 05:50:37;;;;;;;7.80;5.22;;;;;;;;;;6225366;23;20020;-80
2022/11/17 05:53:03;;;;;;;6.88;4.75;;;;;;;;;;6221320;23;20047;-79
2022/11/17 05:55:29;;;;;;;6.22;4.80;;;;;;;;;;6217179;23;20016;-80
2022/11/17 05:57:57;;;;;;;7.07;6.05;;;;;;;;;;6217885;23;20472;-80
2022/11/17 06:00:23;;;;;;;7.80;5.75;;;;;;;;;;6227463;23;20008;-82
2022/11/17 06:02:51;;;;;;;6.55;5.28;;;;;;;;;;6220651;23;19996;-80
2022/11/17 06:05:17;;;;;;;7.10;5.65;;;;;;;;;;6218680;23;20007;-80
2022/11/17 06:07:43;;;;;;;5.78;4.93;;;;;;;;;;6218572;23;20008;-81
2022/11/17 06:10:09;;;;;;;5.47;4.57;;;;;;;;;;6221750;23;20166;-80
2022/11/17 06:12:35;;;;;;;6.68;4.57;;;;;;;;;;6222916;23;20028;-80
2022/11/17 06:15:01;;;;;;;6.30;4.65;;;;;;;;;;6223785;23;20008;-80
2022/11/17 06:17:30;;;;;;;6.40;4.47;;;;;;;;;;6223330;23;20004;-80
2022/11/17 06:20:22;;;;;;;5.25;4.30;;;;;;;;;;6222535;23;20063;-83
2022/11/17 06:22:48;;;;;;;5.00;4.07;;;;;;;;;;6217821;23;20000;-83
2022/11/17 06:25:15;;;;;;;5.18;4.43;;;;;;;;;;6223645;23;20007;-81
2022/11/17 06:27:41;;;;;;;5.25;4.55;;;;;;;;;;6194549;23;20000;-80
2022/11/17 06:30:07;;;;;;;5.22;4.57;;;;;;;;;;6220903;23;20012;-80
2022/11/17 06:32:34;;;;;;;5.60;4.38;;;;;;;;;;6223347;23;20001;-81
2022/11/17 06:35:01;;;;;;;4.93;3.80;;;;;;;;;;6224898;23;20352;-82
2022/11/17 06:37:27;;;;;;;6.55;4.07;;;;;;;;;;6224164;23;20000;-82
2022/11/17 06:39:53;;;;;;;7.50;4.65;;;;;;;;;;6208775;23;20008;-81
2022/11/17 06:43:02;;;;;;;3.90;3.50;;;;;;;;;;6236572;23;20008;-83
2022/11/17 06:45:05;;;;;;;5.35;4.00;;;;;;;;;;6232260;23;19993;-82
2022/11/17 06:47:31;;;;;;;5.10;4.07;;;;;;;;;;6235681;23;20055;-81
2022/11/17 06:49:57;;;;;;;5.45;4.30;;;;;;;;;;6235750;23;20260;-81
2022/11/17 06:52:23;;;;;;;5.85;4.18;;;;;;;;;;6235044;23;20008;-81
2022/11/17 06:54:49;;;;;;;4.95;4.22;;;;;;;;;;6233174;23;20005;-82
2022/11/17 06:57:15;;;;;;;5.85;4.22;;;;;;;;;;6228405;23;20015;-83
2022/11/17 06:59:41;;;;;;;5.78;4.47;;;;;;;;;;6219709;23;20004;-82
2022/11/17 07:02:07;;;;;;;5.50;4.32;;;;;;;;;;6219850;23;20154;-80
2022/11/17 07:04:33;;;;;;;6.72;4.53;;;;;;;;;;6214638;23;20005;-80
2022/11/17 07:06:59;;;;;;;4.57;3.90;;;;;;;;;;6216726;23;20036;-78
2022/11/17 07:09:25;;;;;;;6.28;4.22;;;;;;;;;;6215900;23;20032;-78
2022/11/17 07:11:51;;;;;;;4.57;3.63;;;;;;;;;;6216554;23;19996;-79
2022/11/17 07:14:18;;;;;;;4.00;3.60;;;;;;;;;;6216219;23;19997;-78
2022/11/17 07:16:44;;;;;;;4.97;3.85;;;;;;;;;;6217162;23;20314;-80
2022/11/17 07:19:13;;;;;;;5.13;3.75;;;;;;;;;;6216659;23;20496;-79
2022/11/17 07:21:39;;;;;;;3.80;3.40;;;;;;;;;;6216401;23;20004;-80
2022/11/17 07:24:05;;;;;;;6.15;4.70;;;;;;;;;;6216292;23;20001;-75
2022/11/17 07:26:31;;;;;;;5.13;4.22;;;;;;;;;;6214373;23;20004;-75
2022/11/17 07:28:57;;;;;;;9.20;4.28;;;;;;;;;;6214530;23;20001;-74
2022/11/17 07:31:23;;;;;;;3.42;3.10;;;;;;;;;;6214329;23;20008;-74
2022/11/17 07:33:49;;;;;;;5.93;3.80;;;;;;;;;;6214010;23;20001;-74
2022/11/17 07:36:16;;;;;;;7.97;3.47;;;;;;;;;;6213623;23;20009;-74
2022/11/17 07:38:42;;;;;;;3.40;3.10;;;;;;;;;;6213855;23;19997;-74
2022/11/17 07:41:09;;;;;;;3.65;3.13;;;;;;;;;;6212179;23;20013;-74
2022/11/17 07:43:35;;;;;;;4.38;2.90;;;;;;;;;;6214342;23;20004;-75
2022/11/17 07:46:10;;;;;;;4.72;3.63;;;;;;;;;;6212185;23;20012;-77
2022/11/17 07:48:36;;;;;;;4.72;3.05;;;;;;;;;;6213690;23;19997;-75
2022/11/17 07:51:02;;;;;;;4.00;3.00;;;;;;;;;;6214634;23;20001;-74
2022/11/17 07:53:28;;;;;;;3.78;2.97;;;;;;;;;;6214302;23;20005;-73
2022/11/17 07:55:55;;;;;;;3.83;3.00;;;;;;;;;;6214024;23;20001;-74
2022/11/17 07:58:21;;;;;;;5.47;3.15;;;;;;;;;;6213755;23;20011;-78
2022/11/17 08:00:47;;;;;;;4.25;3.00;;;;;;;;;;6214979;23;20075;-79
2022/11/17 08:03:13;;;;;;;5.63;3.25;;;;;;;;;;6223457;23;20437;-79
2022/11/17 08:05:39;;;;;;;3.78;3.25;;;;;;;;;;6222511;23;20452;-79
2022/11/17 08:08:06;;;;;;;5.00;3.38;;;;;;;;;;6221967;23;19997;-80
2022/11/17 08:10:33;;;;;;;5.97;3.92;;;;;;;;;;6216527;23;20031;-80
2022/11/17 08:12:59;;;;;;;4.22;3.50;;;;;;;;;;6214575;23;20341;-79
2022/11/17 08:15:26;;;;;;;3.97;3.53;;;;;;;;;;6217453;23;20000;-80
2022/11/17 08:17:56;;;;;;;4.82;3.38;;;;;;;;;;6216809;23;20028;-80
2022/11/17 08:20:23;;;;;;;3.95;3.45;;;;;;;;;;6215799;23;20008;-80
2022/11/17 08:22:49;;;;;;;3.88;3.33;;;;;;;;;;6214231;23;20011;-79
2022/11/17 08:25:15;;;;;;;5.40;3.83;;;;;;;;;;6216271;23;20018;-79
2022/11/17 08:27:41;;;;;;;4.85;3.30;;;;;;;;;;6217975;23;20000;-79
2022/11/17 08:30:08;;;;;;;3.72;3.33;;;;;;;;;;6217660;23;20008;-79
2022/11/17 08:32:34;;;;;;;5.85;4.10;;;;;;;;;;6222572;23;20031;-79
2022/11/17 08:35:02;;;;;;;6.50;3.95;;;;;;;;;;6219029;23;20004;-79
2022/11/17 08:37:29;;;;;;;4.47;3.97;;;;;;;;;;6216764;23;20000;-79
2022/11/17 08:39:55;;;;;;;4.30;3.78;;;;;;;;;;6215624;23;20004;-78
2022/11/17 08:42:21;;;;;;;4.40;3.83;;;;;;;;;;6221964;23;20079;-78
2022/11/17 08:44:47;;;;;;;4.65;3.80;;;;;;;;;;6217732;23;20000;-78
2022/11/17 08:47:13;;;;;;;6.07;4.45;;;;;;;;;;6222084;23;20001;-79
2022/11/17 08:49:39;;;;;;;6.75;4.25;;;;;;;;;;6195838;23;20058;-79
2022/11/17 08:52:05;;;;;;;7.22;4.20;;;;;;;;;;6215428;23;20004;-80
2022/11/17 08:54:32;;;;;;;3.85;3.30;;;;;;;;;;6215496;23;20035;-79
2022/11/17 08:56:58;;;;;;;4.68;3.92;;;;;;;;;;6214622;23;20402;-78
2022/11/17 08:59:25;;;;;;;5.82;3.97;;;;;;;;;;6219628;23;20365;-79
2022/11/17 09:01:51;;;;;;;5.38;4.22;;;;;;;;;;6241694;23;20017;-83
2022/11/17 09:04:18;;;;;;;5.47;4.10;;;;;;;;;;6241881;23;20023;-81
2022/11/17 09:06:44;;;;;;;5.72;4.20;;;;;;;;;;6226784;23;20028;-79
2022/11/17 09:09:10;;;;;;;6.78;4.00;;;;;;;;;;6188500;23;20008;-79
2022/11/17 09:11:36;;;;;;;4.88;3.97;;;;;;;;;;6215255;23;20009;-79
2022/11/17 09:14:02;;;;;;;5.88;3.90;;;;;;;;;;6214626;23;20009;-79
2022/11/17 09:16:28;;;;;;;6.03;4.28;;;;;;;;;;6214078;23;20067;-79
2022/11/17 09:18:57;;;;;;;8.90;4.60;;;;;;;;;;6187696;23;20005;-77
2022/11/17 09:21:25;;;;;;;8.60;4.25;;;;;;;;;;6187741;23;20011;-79
2022/11/17 09:23:51;;;;;;;7.45;3.97;;;;;;;;;;6214169;23;20080;-79
2022/11/17 09:26:17;;;;;;;7.25;4.22;;;;;;;;;;6215599;23;20001;-80
2022/11/17 09:28:44;;;;;;;5.35;3.92;;;;;;;;;;6215065;23;20011;-79
2022/11/17 09:31:14;;;;;;;5.32;4.28;;;;;;;;;;6217171;23;20015;-79
2022/11/17 09:33:41;;;;;;;5.85;4.22;;;;;;;;;;6218409;23;20011;-78
2022/11/17 09:36:08;;;;;;;6.07;4.20;;;;;;;;;;6219532;23;20495;-78
2022/11/17 09:38:34;;;;;;;7.80;4.53;;;;;;;;;;6189388;23;20009;-79
2022/11/17 09:41:01;;;;;;;6.43;4.28;;;;;;;;;;6214072;23;20013;-79
2022/11/17 09:43:29;;;;;;;5.20;4.15;;;;;;;;;;6215255;23;19997;-78
2022/11/17 09:46:02;;;;;;;5.60;3.88;;;;;;;;;;6214525;23;19997;-79
2022/11/17 09:48:54;;;;;;;5.22;4.00;;;;;;;;;;6214571;23;20329;-80
2022/11/17 09:51:21;;;;;;;4.50;3.75;;;;;;;;;;6208578;23;20004;-80
2022/11/17 09:53:47;;;;;;;8.77;4.15;;;;;;;;;;6188392;23;20100;-78
2022/11/17 09:56:13;;;;;;;7.35;4.18;;;;;;;;;;6216259;23;20088;-80
2022/11/17 09:59:11;;;;;;;5.65;3.85;;;;;;;;;;6217939;23;20486;-79
2022/11/17 10:01:37;;;;;;;11.13;3.95;;;;;;;;;;6194475;23;20432;-79
2022/11/17 10:04:08;;;;;;;6.30;4.07;;;;;;;;;;6214631;23;20001;-79
2022/11/17 10:06:36;;;;;;;7.63;4.32;;;;;;;;;;6191061;23;20005;-80
2022/11/17 10:09:21;;;;;;;6.25;4.50;;;;;;;;;;6214365;23;20225;-79
2022/11/17 10:11:47;;;;;;;7.95;3.72;;;;;;;;;;6213437;23;20226;-81
2022/11/17 10:14:13;;;;;;;6.03;3.80;;;;;;;;;;6187722;23;20001;-80
2022/11/17 10:16:46;;;;;;;5.80;3.67;;;;;;;;;;6216802;23;20001;-79
2022/11/17 10:19:20;;;;;;;7.45;4.35;;;;;;;;;;6215204;23;20000;-79
2022/11/17 10:21:48;;;;;;;6.32;3.60;;;;;;;;;;6223077;23;20001;-80
2022/11/17 10:24:32;;;;;;;8.60;3.92;;;;;;;;;;6219877;23;20007;-78
2022/11/17 10:26:58;;;;;;;6.43;4.30;;;;;;;;;;6216120;23;20007;-78
2022/11/17 10:29:24;;;;;;;7.05;4.28;;;;;;;;;;6215925;23;20001;-80
2022/11/17 10:31:50;;;;;;;6.88;4.22;;;;;;;;;;6216117;23;20378;-80
2022/11/17 10:34:36;;;;;;;6.50;4.65;;;;;;;;;;6216901;23;20032;-80
2022/11/17 10:37:28;;;;;;;6.05;4.22;;;;;;;;;;6217348;23;20011;-79
2022/11/17 10:40:17;;;;;;;7.85;5.50;;;;;;;;;;6211716;23;20011;-79
2022/11/17 10:42:52;;;;;;;6.78;4.97;;;;;;;;;;6190441;23;20000;-79
2022/11/17 10:45:18;;;;;;;7.30;5.05;;;;;;;;;;6216737;23;20012;-78
2022/11/17 10:47:44;;;;;;;7.30;5.35;;;;;;;;;;6216282;23;20054;-79
2022/11/17 10:50:19;;;;;;;8.25;5.35;;;;;;;;;;6190307;23;20016;-79
2022/11/17 10:52:46;;;;;;;6.78;5.25;;;;;;;;;;6217330;23;20004;-80
2022/11/17 10:55:38;;;;;;;9.45;6.00;;;;;;;;;;6217219;23;20075;-80
2022/11/17 10:58:17;;;;;;;6.50;5.22;;;;;;;;;;6211406;23;20008;-79
2022/11/17 11:00:43;;;;;;;12.88;6.07;;;;;;;;;;6218381;23;20465;-77
2022/11/17 11:03:17;;;;;;;10.65;5.88;;;;;;;;;;6223762;23;20424;-79
2022/11/17 11:05:57;;;;;;;8.52;5.85;;;;;;;;;;6221932;23;19997;-79
2022/11/17 11:08:24;;;;;;;6.90;5.53;;;;;;;;;;6216905;23;20004;-77
2022/11/17 11:10:52;;;;;;;6.70;5.32;;;;;;;;;;6191202;23;20008;-78
2022/11/17 11:13:36;;;;;;;8.90;5.53;;;;;;;;;;6222365;23;20004;-78
2022/11/17 11:16:03;;;;;;;6.53;4.72;;;;;;;;;;6223324;23;20437;-78
2022/11/17 11:18:30;;;;;;;7.07;5.78;;;;;;;;;;6215950;23;20011;-78
2022/11/17 11:21:03;;;;;;;7.88;4.88;;;;;;;;;;6215456;23;20005;-80
2022/11/17 11:23:55;;;;;;;6.78;5.45;;;;;;;;;;6217853;23;20095;-79
2022/11/17 11:26:27;;;;;;;6.07;4.88;;;;;;;;;;6170422;23;20329;-78
2022/11/17 11:28:56;;;;;;;7.75;5.07;;;;;;;;;;6215180;23;20504;-77
2022/11/17 11:31:52;;;;;;;6.97;4.47;;;;;;;;;;6213859;23;20001;-78
2022/11/17 11:34:17;;;;;;;6.88;4.75;;;;;;;;;;6189834;23;20357;-78
2022/11/17 11:36:49;;;;;;;6.60;4.22;;;;;;;;;;6214987;23;20012;-78
2022/11/17 11:39:24;;;;;;;5.72;4.15;;;;;;;;;;6214764;23;20019;-77
2022/11/17 11:41:54;;;;;;;6.20;4.53;;;;;;;;;;6215742;23;20351;-78
2022/11/17 11:44:20;;;;;;;5.90;4.15;;;;;;;;;;6216236;23;20095;-78
2022/11/17 11:46:55;;;;;;;4.50;3.92;;;;;;;;;;6217952;23;20035;-79
2022/11/17 11:49:34;;;;;;;4.80;4.30;;;;;;;;;;6187709;23;20395;-79
2022/11/17 11:52:01;;;;;;;5.65;4.40;;;;;;;;;;6186758;23;20522;-79
2022/11/17 11:54:38;;;;;;;5.57;3.35;;;;;;;;;;6213825;23;20071;-77
2022/11/17 11:57:04;;;;;;;6.30;4.13;;;;;;;;;;6214863;23;20310;-76
2022/11/17 11:59:37;;;;;;;5.50;3.63;;;;;;;;;;6215061;23;20011;-79
2022/11/17 12:02:13;;;;;;;5.32;3.75;;;;;;;;;;6187764;23;20063;-78
2022/11/17 12:04:54;;;;;;;4.97;3.97;;;;;;;;;;6213572;23;20004;-78
2022/11/17 12:07:20;;;;;;;;;;;;;;;;;;6187385;23;20020;-77
2022/11/17 12:09:58;;;;;;;7.22;3.97;;;;;;;;;;6216761;23;19911;-78
2022/11/17 12:12:30;;;;;;;5.93;4.25;;;;;;;;;;6215280;23;20069;-78
2022/11/17 12:15:14;;;;;;;7.13;5.20;;;;;;;;;;6215867;23;20005;-78
2022/11/17 12:17:56;;;;;;;9.43;4.90;;;;;;;;;;6216693;23;20015;-75
2022/11/17 12:20:46;;;;;;;6.85;4.90;;;;;;;;;;6217047;23;20005;-79
2022/11/17 12:23:30;;;;;;;11.00;6.15;;;;;;;;;;6215591;23;20057;-80
2022/11/17 12:25:57;;;;;;;9.00;5.90;;;;;;;;;;6215302;23;19992;-78
2022/11/17 12:28:34;;;;;;;8.25;5.95;;;;;;;;;;6214579;23;20001;-79
2022/11/17 12:31:00;;;;;;;7.68;5.70;;;;;;;;;;6216426;23;20070;-78
2022/11/17 12:33:45;;;;;;;8.00;6.38;;;;;;;;;;6216756;23;20071;-78
2022/11/17 12:36:17;;;;;;;12.90;6.85;;;;;;;;;;6215735;23;20024;-77
2022/11/17 12:38:45;;;;;;;10.82;6.38;;;;;;;;;;6242074;23;20004;-76
2022/11/17 12:41:12;;;;;;;9.00;6.47;;;;;;;;;;6243344;23;20074;-76
2022/11/17 12:43:38;;;;;;;19.15;7.43;;;;;;;;;;6243394;23;20000;-75
2022/11/17 12:46:17;;;;;;;11.00;8.32;;;;;;;;;;6245187;22;20000;-75
2022/11/17 12:48:55;;;;;;;26.95;11.07;;;;;;;;;;6244545;22;19997;-76
2022/11/17 12:51:21;;;;;;;17.75;11.05;;;;;;;;;;6243710;23;20428;-76
2022/11/17 12:54:22;;;;;;;14.15;10.00;;;;;;;;;;6243050;23;20008;-75
2022/11/17 12:56:48;;;;;;;17.75;11.38;;;;;;;;;;6210626;23;20076;-76
2022/11/17 12:59:36;;;;;;;17.00;11.35;;;;;;;;;;6242467;23;20043;-76
2022/11/17 13:02:14;;;;;;;14.55;10.07;;;;;;;;;;6244368;23;20011;-76
2022/11/17 13:04:55;;;;;;;17.95;11.73;;;;;;;;;;6242940;23;20318;-75
2022/11/17 13:07:25;;;;;;;24.70;12.63;;;;;;;;;;6242421;23;20011;-76
2022/11/17 13:09:55;;;;;;;21.88;12.73;;;;;;;;;;6244416;23;20403;-75
2022/11/17 13:12:39;;;;;;;19.88;12.45;;;;;;;;;;6242754;23;20008;-76
2022/11/17 13:15:06;;;;;;;16.80;11.52;;;;;;;;;;6243121;23;20004;-75
2022/11/17 13:17:38;;;;;;;17.98;10.98;;;;;;;;;;6241779;23;20007;-76
2022/11/17 13:20:15;;;;;;;18.05;12.68;;;;;;;;;;6242454;23;20010;-76
2022/11/17 13:22:43;;;;;;;18.52;12.55;;;;;;;;;;6244537;23;20000;-76
2022/11/17 13:25:20;;;;;;;16.98;12.00;;;;;;;;;;6242117;23;20036;-75
2022/11/17 13:27:46;;;;;;;15.30;11.15;;;;;;;;;;6243386;23;20000;-75
2022/11/17 13:30:13;;;;;;;18.67;11.45;;;;;;;;;;6243043;23;20071;-75
2022/11/17 13:32:42;;;;;;;20.25;12.93;;;;;;;;;;6243738;23;20000;-75
2022/11/17 13:35:18;;;;;;;15.82;10.93;;;;;;;;;;6242023;23;20390;-76
2022/11/17 13:38:02;;;;;;;15.73;10.30;;;;;;;;;;6241222;23;20022;-75
2022/11/17 13:40:29;;;;;;;19.33;10.38;;;;;;;;;;6242204;23;20507;-75
2022/11/17 13:42:55;;;;;;;15.02;10.43;;;;;;;;;;6243917;23;20048;-77
2022/11/17 13:45:21;;;;;;;19.35;13.18;;;;;;;;;;6243928;23;20000;-77
2022/11/17 13:47:49;;;;;;;15.90;11.25;;;;;;;;;;6240834;23;20004;-75
2022/11/17 13:50:24;;;;;;;14.43;9.93;;;;;;;;;;6244163;22;20435;-75
2022/11/17 13:52:53;;;;;;;14.30;8.95;;;;;;;;;;6212448;23;20025;-76
2022/11/17 13:55:20;;;;;;;15.40;9.88;;;;;;;;;;6211684;23;20024;-75
2022/11/17 13:58:12;;;;;;;12.82;9.38;;;;;;;;;;6210917;23;20182;-75
2022/11/17 14:00:38;;;;;;;15.30;9.15;;;;;;;;;;6188389;23;20368;-75
2022/11/17 14:03:05;;;;;;;11.65;8.00;;;;;;;;;;6211811;23;20058;-75
2022/11/17 14:05:35;;;;;;;14.05;8.82;;;;;;;;;;6212543;23;20005;-75
2022/11/17 14:08:22;;;;;;;15.02;8.38;;;;;;;;;;6210211;23;20004;-75
2022/11/17 14:10:48;;;;;;;12.10;9.15;;;;;;;;;;6209241;23;20013;-76
2022/11/17 14:13:18;;;;;;;11.63;7.97;;;;;;;;;;6211121;23;20437;-75
2022/11/17 14:15:52;;;;;;;10.50;7.57;;;;;;;;;;6213047;23;20004;-75
2022/11/17 14:18:33;;;;;;;9.68;7.38;;;;;;;;;;6212549;23;20482;-75
2022/11/17 14:21:19;;;;;;;11.43;7.78;;;;;;;;;;6213062;23;20388;-75
2022/11/17 14:23:48;;;;;;;10.10;7.57;;;;;;;;;;6210361;23;20005;-75
2022/11/17 14:26:17;;;;;;;10.50;7.03;;;;;;;;;;6209185;23;20096;-75
2022/11/17 14:28:43;;;;;;;10.82;6.82;;;;;;;;;;6211281;23;19997;-78
2022/11/17 14:31:10;;;;;;;9.73;7.00;;;;;;;;;;6211842;23;20012;-76
2022/11/17 14:33:36;;;;;;;10.48;7.15;;;;;;;;;;6214524;23;20054;-76
2022/11/17 14:36:04;;;;;;;9.45;6.38;;;;;;;;;;6217379;23;20015;-76
2022/11/17 14:38:34;;;;;;;8.57;6.68;;;;;;;;;;6215752;23;20016;-76
2022/11/17 14:41:00;;;;;;;9.32;6.60;;;;;;;;;;6218577;23;20005;-76
2022/11/17 14:43:26;;;;;;;10.07;6.85;;;;;;;;;;6218230;23;20012;-77
2022/11/17 14:45:53;;;;;;;8.90;6.65;;;;;;;;;;6219119;23;19992;-76
2022/11/17 14:48:19;;;;;;;10.15;7.05;;;;;;;;;;6214782;23;20000;-75
2022/11/17 14:50:45;;;;;;;10.00;7.20;;;;;;;;;;6213794;23;20008;-77
2022/11/17 14:53:11;;;;;;;11.07;7.30;;;;;;;;;;6213739;23;20036;-74
2022/11/17 14:55:40;;;;;;;10.85;6.88;;;;;;;;;;6213709;23;20008;-76
2022/11/17 14:58:08;;;;;;;12.18;7.88;;;;;;;;;;6212250;23;20005;-76
2022/11/17 15:00:40;;;;;;;12.77;7.90;;;;;;;;;;6213482;23;20393;-76
2022/11/17 15:03:06;;;;;;;10.90;7.75;;;;;;;;;;6214566;23;20000;-76
2022/11/17 15:05:36;;;;;;;11.85;8.07;;;;;;;;;;6213347;23;20345;-75
2022/11/17 15:08:03;;;;;;;13.88;8.18;;;;;;;;;;6213456;23;20067;-78
2022/11/17 15:10:29;;;;;;;11.73;7.22;;;;;;;;;;6214861;23;20027;-77
2022/11/17 15:12:56;;;;;;;12.73;7.57;;;;;;;;;;6215036;23;20083;-76
2022/11/17 15:15:28;;;;;;;10.98;7.53;;;;;;;;;;6213517;23;20004;-76
2022/11/17 15:17:54;;;;;;;13.43;8.13;;;;;;;;;;6213241;23;20004;-76
2022/11/17 15:20:22;;;;;;;14.52;7.63;;;;;;;;;;6214853;23;20445;-76
2022/11/17 15:22:49;;;;;;;10.77;7.43;;;;;;;;;;6215449;23;19997;-77
2022/11/17 15:25:15;;;;;;;11.70;7.93;;;;;;;;;;6214760;23;20024;-79